sensor_id;sensor_type;location;lat;lon;timestamp;P1;durP1;ratioP1;P2;durP2;ratioP2
20084;SDS011;10202;48.474;9.138;2022-09-20T00:01:31;4.25;;;1.55;;
20084;SDS011;10202;48.474;9.138;2022-09-20T00:03:58;2.83;;;1.50;;
20084;SDS011;10202;48.474;9.138;2022-09-20T00:06:26;7.05;;;1.70;;
20084;SDS011;10202;48.474;9.138;2022-09-20T00:08:53;4.65;;;1.38;;
20084;SDS011;10202;48.474;9.138;2022-09-20T00:14:09;6.00;;;1.55;;
20084;SDS011;10202;48.474;9.138;2022-09-20T00:16:36;8.32;;;1.70;;
20084;SDS011;10202;48.474;9.138;2022-09-20T00:19:03;2.45;;;1.30;;
20084;SDS011;10202;48.474;9.138;2022-09-20T00:21:32;5.55;;;1.75;;
20084;SDS011;10202;48.474;9.138;2022-09-20T00:23:58;3.22;;;1.70;;
20084;SDS011;10202;48.474;9.138;2022-09-20T00:26:27;6.60;;;2.58;;
20084;SDS011;10202;48.474;9.138;2022-09-20T00:28:53;4.57;;;2.00;;
20084;SDS011;10202;48.474;9.138;2022-09-20T00:31:19;4.70;;;1.95;;
20084;SDS011;10202;48.474;9.138;2022-09-20T00:33:44;8.10;;;2.30;;
20084;SDS011;10202;48.474;9.138;2022-09-20T00:36:29;10.23;;;2.25;;
20084;SDS011;10202;48.474;9.138;2022-09-20T00:38:56;3.35;;;1.85;;
20084;SDS011;10202;48.474;9.138;2022-09-20T00:42:14;3.35;;;2.00;;
20084;SDS011;10202;48.474;9.138;2022-09-20T00:44:40;4.68;;;1.75;;
20084;SDS011;10202;48.474;9.138;2022-09-20T00:53:35;6.55;;;1.83;;
20084;SDS011;10202;48.474;9.138;2022-09-20T00:56:27;3.70;;;1.73;;
20084;SDS011;10202;48.474;9.138;2022-09-20T01:01:53;7.50;;;1.80;;
20084;SDS011;10202;48.474;9.138;2022-09-20T01:04:21;4.43;;;1.70;;
20084;SDS011;10202;48.474;9.138;2022-09-20T01:06:48;5.72;;;1.70;;
20084;SDS011;10202;48.474;9.138;2022-09-20T01:12:05;4.68;;;1.52;;
20084;SDS011;10202;48.474;9.138;2022-09-20T01:15:03;3.70;;;1.50;;
20084;SDS011;10202;48.474;9.138;2022-09-20T01:17:30;6.03;;;1.70;;
20084;SDS011;10202;48.474;9.138;2022-09-20T01:26:52;2.75;;;1.45;;
20084;SDS011;10202;48.474;9.138;2022-09-20T01:30:05;4.60;;;1.10;;
20084;SDS011;10202;48.474;9.138;2022-09-20T01:32:11;3.80;;;1.30;;
20084;SDS011;10202;48.474;9.138;2022-09-20T01:35:01;5.53;;;1.50;;
20084;SDS011;10202;48.474;9.138;2022-09-20T01:37:27;4.20;;;1.67;;
20084;SDS011;10202;48.474;9.138;2022-09-20T01:41:52;4.70;;;1.50;;
20084;SDS011;10202;48.474;9.138;2022-09-20T01:44:53;4.53;;;1.55;;
20084;SDS011;10202;48.474;9.138;2022-09-20T01:51:33;3.28;;;1.60;;
20084;SDS011;10202;48.474;9.138;2022-09-20T02:03:57;7.05;;;1.65;;
20084;SDS011;10202;48.474;9.138;2022-09-20T02:22:41;6.32;;;1.50;;
20084;SDS011;10202;48.474;9.138;2022-09-20T02:51:35;3.88;;;1.27;;
20084;SDS011;10202;48.474;9.138;2022-09-20T02:57:43;3.75;;;1.65;;
20084;SDS011;10202;48.474;9.138;2022-09-20T04:13:34;5.30;;;2.38;;
20084;SDS011;10202;48.474;9.138;2022-09-20T04:23:24;5.65;;;1.75;;
20084;SDS011;10202;48.474;9.138;2022-09-20T04:26:35;4.10;;;1.58;;
20084;SDS011;10202;48.474;9.138;2022-09-20T04:38:18;3.13;;;1.60;;
20084;SDS011;10202;48.474;9.138;2022-09-20T05:43:33;8.02;;;2.70;;
20084;SDS011;10202;48.474;9.138;2022-09-20T05:46:02;5.65;;;2.20;;
20084;SDS011;10202;48.474;9.138;2022-09-20T05:52:58;4.47;;;2.08;;
20084;SDS011;10202;48.474;9.138;2022-09-20T06:02:33;5.78;;;2.08;;
20084;SDS011;10202;48.474;9.138;2022-09-20T06:29:19;8.77;;;4.38;;
20084;SDS011;10202;48.474;9.138;2022-09-20T06:31:52;10.15;;;4.70;;
20084;SDS011;10202;48.474;9.138;2022-09-20T06:42:07;6.57;;;2.95;;
20084;SDS011;10202;48.474;9.138;2022-09-20T06:44:59;8.18;;;3.35;;
20084;SDS011;10202;48.474;9.138;2022-09-20T06:47:24;6.00;;;3.00;;
20084;SDS011;10202;48.474;9.138;2022-09-20T06:49:51;12.07;;;3.58;;
20084;SDS011;10202;48.474;9.138;2022-09-20T06:52:40;6.90;;;3.22;;
20084;SDS011;10202;48.474;9.138;2022-09-20T06:55:09;7.65;;;3.45;;
20084;SDS011;10202;48.474;9.138;2022-09-20T06:58:37;7.80;;;2.85;;
20084;SDS011;10202;48.474;9.138;2022-09-20T07:01:03;7.05;;;2.78;;
20084;SDS011;10202;48.474;9.138;2022-09-20T07:03:28;7.93;;;2.75;;
20084;SDS011;10202;48.474;9.138;2022-09-20T07:05:56;6.50;;;2.42;;
20084;SDS011;10202;48.474;9.138;2022-09-20T07:08:24;6.10;;;2.28;;
20084;SDS011;10202;48.474;9.138;2022-09-20T07:10:51;8.07;;;2.30;;
20084;SDS011;10202;48.474;9.138;2022-09-20T07:17:16;5.32;;;2.30;;
20084;SDS011;10202;48.474;9.138;2022-09-20T07:19:41;8.35;;;2.50;;
20084;SDS011;10202;48.474;9.138;2022-09-20T07:22:07;3.67;;;1.92;;
20084;SDS011;10202;48.474;9.138;2022-09-20T07:24:32;6.97;;;1.90;;
20084;SDS011;10202;48.474;9.138;2022-09-20T07:26:58;7.40;;;2.20;;
20084;SDS011;10202;48.474;9.138;2022-09-20T07:30:20;6.00;;;1.92;;
20084;SDS011;10202;48.474;9.138;2022-09-20T07:32:45;9.45;;;2.22;;
20084;SDS011;10202;48.474;9.138;2022-09-20T07:35:11;6.40;;;2.10;;
20084;SDS011;10202;48.474;9.138;2022-09-20T07:41:05;11.20;;;2.30;;
20084;SDS011;10202;48.474;9.138;2022-09-20T07:43:55;14.02;;;1.83;;
20084;SDS011;10202;48.474;9.138;2022-09-20T07:46:40;7.18;;;2.65;;
20084;SDS011;10202;48.474;9.138;2022-09-20T07:49:06;11.52;;;6.03;;
20084;SDS011;10202;48.474;9.138;2022-09-20T07:51:31;6.68;;;3.42;;
20084;SDS011;10202;48.474;9.138;2022-09-20T07:53:56;8.25;;;3.50;;
20084;SDS011;10202;48.474;9.138;2022-09-20T07:56:22;7.43;;;2.97;;
20084;SDS011;10202;48.474;9.138;2022-09-20T07:58:48;3.30;;;1.60;;
20084;SDS011;10202;48.474;9.138;2022-09-20T08:01:13;5.68;;;1.95;;
20084;SDS011;10202;48.474;9.138;2022-09-20T08:03:39;4.30;;;2.03;;
20084;SDS011;10202;48.474;9.138;2022-09-20T08:06:08;4.38;;;2.67;;
20084;SDS011;10202;48.474;9.138;2022-09-20T08:08:57;4.68;;;1.75;;
20084;SDS011;10202;48.474;9.138;2022-09-20T08:11:23;5.78;;;2.25;;
20084;SDS011;10202;48.474;9.138;2022-09-20T08:13:54;10.50;;;2.58;;
20084;SDS011;10202;48.474;9.138;2022-09-20T08:16:45;10.15;;;2.80;;
20084;SDS011;10202;48.474;9.138;2022-09-20T08:22:04;9.85;;;2.72;;
20084;SDS011;10202;48.474;9.138;2022-09-20T08:24:30;8.68;;;2.72;;
20084;SDS011;10202;48.474;9.138;2022-09-20T08:26:57;9.25;;;2.53;;
20084;SDS011;10202;48.474;9.138;2022-09-20T08:29:23;5.13;;;2.38;;
20084;SDS011;10202;48.474;9.138;2022-09-20T08:32:13;7.93;;;2.70;;
20084;SDS011;10202;48.474;9.138;2022-09-20T08:34:39;9.90;;;2.42;;
20084;SDS011;10202;48.474;9.138;2022-09-20T08:37:04;4.25;;;2.50;;
20084;SDS011;10202;48.474;9.138;2022-09-20T08:39:53;6.30;;;2.90;;
20084;SDS011;10202;48.474;9.138;2022-09-20T08:48:00;7.43;;;2.92;;
20084;SDS011;10202;48.474;9.138;2022-09-20T08:50:29;5.35;;;2.22;;
20084;SDS011;10202;48.474;9.138;2022-09-20T08:52:56;4.35;;;2.25;;
20084;SDS011;10202;48.474;9.138;2022-09-20T08:58:11;31.15;;;15.63;;
20084;SDS011;10202;48.474;9.138;2022-09-20T09:00:38;6.85;;;2.95;;
20084;SDS011;10202;48.474;9.138;2022-09-20T09:05:56;11.50;;;2.10;;
20084;SDS011;10202;48.474;9.138;2022-09-20T09:08:45;11.07;;;3.88;;
20084;SDS011;10202;48.474;9.138;2022-09-20T09:11:15;30.50;;;14.38;;
20084;SDS011;10202;48.474;9.138;2022-09-20T09:17:33;8.70;;;3.55;;
20084;SDS011;10202;48.474;9.138;2022-09-20T09:20:06;16.65;;;7.30;;
20084;SDS011;10202;48.474;9.138;2022-09-20T09:22:41;9.60;;;3.92;;
20084;SDS011;10202;48.474;9.138;2022-09-20T09:28:12;7.63;;;2.85;;
20084;SDS011;10202;48.474;9.138;2022-09-20T09:30:39;6.90;;;2.08;;
20084;SDS011;10202;48.474;9.138;2022-09-20T09:36:29;7.05;;;2.00;;
20084;SDS011;10202;48.474;9.138;2022-09-20T09:41:58;5.15;;;1.55;;
20084;SDS011;10202;48.474;9.138;2022-09-20T09:44:25;6.93;;;3.10;;
20084;SDS011;10202;48.474;9.138;2022-09-20T09:46:53;3.90;;;1.77;;
20084;SDS011;10202;48.474;9.138;2022-09-20T09:53:09;4.85;;;1.70;;
20084;SDS011;10202;48.474;9.138;2022-09-20T10:09:50;7.60;;;1.52;;
20084;SDS011;10202;48.474;9.138;2022-09-20T10:40:47;8.48;;;1.63;;
20084;SDS011;10202;48.474;9.138;2022-09-20T11:18:29;6.78;;;1.50;;
20084;SDS011;10202;48.474;9.138;2022-09-20T12:28:52;4.90;;;1.30;;
20084;SDS011;10202;48.474;9.138;2022-09-20T12:39:39;6.85;;;0.95;;
20084;SDS011;10202;48.474;9.138;2022-09-20T12:42:57;3.22;;;1.10;;
20084;SDS011;10202;48.474;9.138;2022-09-20T12:54:22;7.50;;;2.05;;
20084;SDS011;10202;48.474;9.138;2022-09-20T13:12:36;2.28;;;1.20;;
20084;SDS011;10202;48.474;9.138;2022-09-20T13:15:02;2.60;;;1.23;;
20084;SDS011;10202;48.474;9.138;2022-09-20T13:17:51;2.58;;;1.02;;
20084;SDS011;10202;48.474;9.138;2022-09-20T13:20:42;8.55;;;1.30;;
20084;SDS011;10202;48.474;9.138;2022-09-20T13:26:01;4.15;;;1.50;;
20084;SDS011;10202;48.474;9.138;2022-09-20T13:31:24;10.10;;;2.60;;
20084;SDS011;10202;48.474;9.138;2022-09-20T13:33:52;8.00;;;1.80;;
20084;SDS011;10202;48.474;9.138;2022-09-20T13:36:19;3.75;;;1.48;;
20084;SDS011;10202;48.474;9.138;2022-09-20T13:38:49;5.20;;;1.45;;
20084;SDS011;10202;48.474;9.138;2022-09-20T13:41:14;7.95;;;1.50;;
20084;SDS011;10202;48.474;9.138;2022-09-20T13:43:41;2.88;;;1.73;;
20084;SDS011;10202;48.474;9.138;2022-09-20T13:46:11;4.63;;;1.60;;
20084;SDS011;10202;48.474;9.138;2022-09-20T13:48:40;5.35;;;1.40;;
20084;SDS011;10202;48.474;9.138;2022-09-20T13:57:09;4.35;;;1.27;;
20084;SDS011;10202;48.474;9.138;2022-09-20T14:02:36;6.50;;;1.33;;
20084;SDS011;10202;48.474;9.138;2022-09-20T14:05:04;2.08;;;1.15;;
20084;SDS011;10202;48.474;9.138;2022-09-20T14:07:31;2.00;;;1.30;;
20084;SDS011;10202;48.474;9.138;2022-09-20T14:09:57;3.70;;;1.45;;
20084;SDS011;10202;48.474;9.138;2022-09-20T14:12:23;3.28;;;1.30;;
20084;SDS011;10202;48.474;9.138;2022-09-20T14:14:49;4.40;;;1.40;;
20084;SDS011;10202;48.474;9.138;2022-09-20T14:17:16;4.30;;;1.25;;
20084;SDS011;10202;48.474;9.138;2022-09-20T14:20:05;4.40;;;1.52;;
20084;SDS011;10202;48.474;9.138;2022-09-20T14:22:31;4.18;;;1.10;;
20084;SDS011;10202;48.474;9.138;2022-09-20T14:24:58;4.68;;;1.30;;
20084;SDS011;10202;48.474;9.138;2022-09-20T14:27:25;3.00;;;1.20;;
20084;SDS011;10202;48.474;9.138;2022-09-20T14:29:52;2.28;;;1.35;;
20084;SDS011;10202;48.474;9.138;2022-09-20T14:43:28;7.65;;;1.40;;
20084;SDS011;10202;48.474;9.138;2022-09-20T14:46:18;4.03;;;1.58;;
20084;SDS011;10202;48.474;9.138;2022-09-20T14:48:43;3.33;;;1.40;;
20084;SDS011;10202;48.474;9.138;2022-09-20T14:56:51;4.45;;;1.70;;
20084;SDS011;10202;48.474;9.138;2022-09-20T15:02:09;6.32;;;1.40;;
20084;SDS011;10202;48.474;9.138;2022-09-20T15:04:34;2.38;;;1.17;;
20084;SDS011;10202;48.474;9.138;2022-09-20T15:09:51;5.90;;;1.50;;
20084;SDS011;10202;48.474;9.138;2022-09-20T15:12:17;3.58;;;1.33;;
20084;SDS011;10202;48.474;9.138;2022-09-20T15:14:44;3.17;;;1.63;;
20084;SDS011;10202;48.474;9.138;2022-09-20T15:19:58;2.25;;;1.30;;
20084;SDS011;10202;48.474;9.138;2022-09-20T15:22:23;3.10;;;1.63;;
20084;SDS011;10202;48.474;9.138;2022-09-20T15:24:50;4.03;;;1.63;;
20084;SDS011;10202;48.474;9.138;2022-09-20T15:27:15;4.82;;;1.20;;
20084;SDS011;10202;48.474;9.138;2022-09-20T15:29:41;2.22;;;1.23;;
20084;SDS011;10202;48.474;9.138;2022-09-20T15:32:08;3.30;;;1.17;;
20084;SDS011;10202;48.474;9.138;2022-09-20T15:34:34;7.05;;;1.50;;
20084;SDS011;10202;48.474;9.138;2022-09-20T15:37:00;3.92;;;1.88;;
20084;SDS011;10202;48.474;9.138;2022-09-20T15:39:25;6.65;;;1.48;;
20084;SDS011;10202;48.474;9.138;2022-09-20T15:41:52;3.83;;;1.70;;
20084;SDS011;10202;48.474;9.138;2022-09-20T15:44:17;3.25;;;1.60;;
20084;SDS011;10202;48.474;9.138;2022-09-20T15:46:44;3.33;;;1.40;;
20084;SDS011;10202;48.474;9.138;2022-09-20T15:49:09;7.60;;;1.63;;
20084;SDS011;10202;48.474;9.138;2022-09-20T15:51:36;2.03;;;1.15;;
20084;SDS011;10202;48.474;9.138;2022-09-20T15:54:02;2.75;;;1.60;;
20084;SDS011;10202;48.474;9.138;2022-09-20T15:56:31;2.35;;;1.63;;
20084;SDS011;10202;48.474;9.138;2022-09-20T15:58:58;3.35;;;1.35;;
20084;SDS011;10202;48.474;9.138;2022-09-20T16:01:26;4.25;;;1.30;;
20084;SDS011;10202;48.474;9.138;2022-09-20T16:03:53;1.88;;;1.08;;
20084;SDS011;10202;48.474;9.138;2022-09-20T16:06:19;2.58;;;1.40;;
20084;SDS011;10202;48.474;9.138;2022-09-20T16:08:46;3.13;;;1.13;;
20084;SDS011;10202;48.474;9.138;2022-09-20T16:11:12;4.57;;;1.10;;
20084;SDS011;10202;48.474;9.138;2022-09-20T16:13:38;5.40;;;1.40;;
20084;SDS011;10202;48.474;9.138;2022-09-20T16:16:05;3.65;;;1.27;;
20084;SDS011;10202;48.474;9.138;2022-09-20T16:18:32;3.67;;;1.67;;
20084;SDS011;10202;48.474;9.138;2022-09-20T16:21:18;4.35;;;1.70;;
20084;SDS011;10202;48.474;9.138;2022-09-20T16:26:34;2.47;;;1.25;;
20084;SDS011;10202;48.474;9.138;2022-09-20T16:29:00;3.22;;;1.15;;
20084;SDS011;10202;48.474;9.138;2022-09-20T16:39:36;4.10;;;1.52;;
20084;SDS011;10202;48.474;9.138;2022-09-20T16:42:02;4.10;;;2.00;;
20084;SDS011;10202;48.474;9.138;2022-09-20T16:47:18;4.13;;;1.70;;
20084;SDS011;10202;48.474;9.138;2022-09-20T16:49:47;3.95;;;1.50;;
20084;SDS011;10202;48.474;9.138;2022-09-20T16:52:14;5.00;;;2.10;;
20084;SDS011;10202;48.474;9.138;2022-09-20T16:54:39;3.95;;;1.88;;
20084;SDS011;10202;48.474;9.138;2022-09-20T16:57:05;4.90;;;2.40;;
20084;SDS011;10202;48.474;9.138;2022-09-20T16:59:30;12.88;;;5.50;;
20084;SDS011;10202;48.474;9.138;2022-09-20T17:01:56;6.80;;;3.40;;
20084;SDS011;10202;48.474;9.138;2022-09-20T17:04:21;7.05;;;3.90;;
20084;SDS011;10202;48.474;9.138;2022-09-20T17:06:47;19.40;;;7.90;;
20084;SDS011;10202;48.474;9.138;2022-09-20T17:09:14;8.68;;;3.25;;
20084;SDS011;10202;48.474;9.138;2022-09-20T17:11:41;5.28;;;1.73;;
20084;SDS011;10202;48.474;9.138;2022-09-20T17:14:31;3.28;;;1.48;;
20084;SDS011;10202;48.474;9.138;2022-09-20T17:16:57;2.22;;;1.40;;
20084;SDS011;10202;48.474;9.138;2022-09-20T17:19:23;1.77;;;1.30;;
20084;SDS011;10202;48.474;9.138;2022-09-20T17:21:50;5.75;;;1.33;;
20084;SDS011;10202;48.474;9.138;2022-09-20T17:24:16;2.70;;;1.30;;
20084;SDS011;10202;48.474;9.138;2022-09-20T17:26:45;2.53;;;1.30;;
20084;SDS011;10202;48.474;9.138;2022-09-20T17:29:12;3.92;;;1.80;;
20084;SDS011;10202;48.474;9.138;2022-09-20T17:31:41;2.58;;;1.70;;
20084;SDS011;10202;48.474;9.138;2022-09-20T17:34:11;4.55;;;2.10;;
20084;SDS011;10202;48.474;9.138;2022-09-20T17:36:38;2.90;;;1.73;;
20084;SDS011;10202;48.474;9.138;2022-09-20T17:39:05;5.30;;;1.90;;
20084;SDS011;10202;48.474;9.138;2022-09-20T17:41:34;3.28;;;1.60;;
20084;SDS011;10202;48.474;9.138;2022-09-20T17:44:00;1.67;;;1.35;;
20084;SDS011;10202;48.474;9.138;2022-09-20T17:46:27;7.13;;;3.58;;
20084;SDS011;10202;48.474;9.138;2022-09-20T17:48:57;11.80;;;4.22;;
20084;SDS011;10202;48.474;9.138;2022-09-20T17:51:26;13.70;;;6.80;;
20084;SDS011;10202;48.474;9.138;2022-09-20T17:53:53;10.57;;;5.53;;
20084;SDS011;10202;48.474;9.138;2022-09-20T17:56:20;4.78;;;3.08;;
20084;SDS011;10202;48.474;9.138;2022-09-20T17:58:48;3.53;;;2.15;;
20084;SDS011;10202;48.474;9.138;2022-09-20T18:01:15;5.70;;;2.00;;
20084;SDS011;10202;48.474;9.138;2022-09-20T18:03:43;5.95;;;2.40;;
20084;SDS011;10202;48.474;9.138;2022-09-20T18:06:33;4.30;;;2.00;;
20084;SDS011;10202;48.474;9.138;2022-09-20T18:09:23;5.10;;;2.22;;
20084;SDS011;10202;48.474;9.138;2022-09-20T18:11:50;9.07;;;5.00;;
20084;SDS011;10202;48.474;9.138;2022-09-20T18:14:17;9.52;;;2.90;;
20084;SDS011;10202;48.474;9.138;2022-09-20T18:16:45;3.78;;;2.30;;
20084;SDS011;10202;48.474;9.138;2022-09-20T18:19:11;6.07;;;2.20;;
20084;SDS011;10202;48.474;9.138;2022-09-20T18:21:38;8.25;;;2.15;;
20084;SDS011;10202;48.474;9.138;2022-09-20T18:24:05;5.85;;;1.92;;
20084;SDS011;10202;48.474;9.138;2022-09-20T18:26:32;6.45;;;2.70;;
20084;SDS011;10202;48.474;9.138;2022-09-20T18:31:52;12.15;;;5.25;;
20084;SDS011;10202;48.474;9.138;2022-09-20T18:34:19;12.55;;;6.00;;
20084;SDS011;10202;48.474;9.138;2022-09-20T18:36:56;22.84;;;10.98;;
20084;SDS011;10202;48.474;9.138;2022-09-20T18:39:25;51.30;;;24.52;;
20084;SDS011;10202;48.474;9.138;2022-09-20T18:42:14;27.63;;;13.68;;
20084;SDS011;10202;48.474;9.138;2022-09-20T18:44:40;18.23;;;8.07;;
20084;SDS011;10202;48.474;9.138;2022-09-20T18:47:08;16.50;;;7.47;;
20084;SDS011;10202;48.474;9.138;2022-09-20T18:49:33;10.07;;;5.90;;
20084;SDS011;10202;48.474;9.138;2022-09-20T18:51:59;7.45;;;4.03;;
20084;SDS011;10202;48.474;9.138;2022-09-20T18:54:25;6.25;;;3.53;;
20084;SDS011;10202;48.474;9.138;2022-09-20T18:56:54;4.30;;;2.70;;
20084;SDS011;10202;48.474;9.138;2022-09-20T18:59:21;5.05;;;2.40;;
20084;SDS011;10202;48.474;9.138;2022-09-20T19:08:15;8.07;;;2.70;;
20084;SDS011;10202;48.474;9.138;2022-09-20T19:13:43;5.38;;;2.40;;
20084;SDS011;10202;48.474;9.138;2022-09-20T19:27:46;14.32;;;7.45;;
20084;SDS011;10202;48.474;9.138;2022-09-20T19:30:12;20.63;;;10.27;;
20084;SDS011;10202;48.474;9.138;2022-09-20T19:32:39;17.48;;;8.80;;
20084;SDS011;10202;48.474;9.138;2022-09-20T19:35:05;21.48;;;9.70;;
20084;SDS011;10202;48.474;9.138;2022-09-20T19:50:58;5.90;;;2.17;;
20084;SDS011;10202;48.474;9.138;2022-09-20T19:53:27;5.47;;;1.95;;
20084;SDS011;10202;48.474;9.138;2022-09-20T19:58:41;4.00;;;2.25;;
20084;SDS011;10202;48.474;9.138;2022-09-20T20:01:09;4.63;;;2.00;;
20084;SDS011;10202;48.474;9.138;2022-09-20T20:03:35;5.05;;;2.03;;
20084;SDS011;10202;48.474;9.138;2022-09-20T20:27:42;7.30;;;2.60;;
20084;SDS011;10202;48.474;9.138;2022-09-20T20:30:09;3.30;;;1.90;;
20084;SDS011;10202;48.474;9.138;2022-09-20T20:32:35;3.38;;;1.90;;
20084;SDS011;10202;48.474;9.138;2022-09-20T20:35:01;4.15;;;2.10;;
20084;SDS011;10202;48.474;9.138;2022-09-20T20:37:26;5.43;;;2.40;;
20084;SDS011;10202;48.474;9.138;2022-09-20T20:39:52;4.15;;;2.20;;
20084;SDS011;10202;48.474;9.138;2022-09-20T20:42:18;2.58;;;2.10;;
20084;SDS011;10202;48.474;9.138;2022-09-20T20:44:44;7.85;;;2.60;;
20084;SDS011;10202;48.474;9.138;2022-09-20T20:47:11;5.57;;;2.60;;
20084;SDS011;10202;48.474;9.138;2022-09-20T20:49:37;6.10;;;2.75;;
20084;SDS011;10202;48.474;9.138;2022-09-20T20:52:03;10.25;;;3.13;;
20084;SDS011;10202;48.474;9.138;2022-09-20T20:54:33;4.90;;;2.55;;
20084;SDS011;10202;48.474;9.138;2022-09-20T20:56:58;4.95;;;2.78;;
20084;SDS011;10202;48.474;9.138;2022-09-20T20:59:24;9.48;;;3.22;;
20084;SDS011;10202;48.474;9.138;2022-09-20T21:01:49;6.40;;;2.70;;
20084;SDS011;10202;48.474;9.138;2022-09-20T21:04:15;6.70;;;3.03;;
20084;SDS011;10202;48.474;9.138;2022-09-20T21:06:41;6.72;;;2.75;;
20084;SDS011;10202;48.474;9.138;2022-09-20T21:09:07;8.45;;;2.75;;
20084;SDS011;10202;48.474;9.138;2022-09-20T21:11:37;3.83;;;2.60;;
20084;SDS011;10202;48.474;9.138;2022-09-20T21:14:07;8.77;;;2.85;;
20084;SDS011;10202;48.474;9.138;2022-09-20T21:16:35;5.97;;;2.45;;
20084;SDS011;10202;48.474;9.138;2022-09-20T21:19:02;5.03;;;2.80;;
20084;SDS011;10202;48.474;9.138;2022-09-20T21:21:29;5.88;;;2.63;;
20084;SDS011;10202;48.474;9.138;2022-09-20T21:23:58;6.82;;;2.67;;
20084;SDS011;10202;48.474;9.138;2022-09-20T21:26:25;6.97;;;2.50;;
20084;SDS011;10202;48.474;9.138;2022-09-20T21:28:53;7.22;;;2.65;;
20084;SDS011;10202;48.474;9.138;2022-09-20T21:31:21;3.63;;;2.10;;
20084;SDS011;10202;48.474;9.138;2022-09-20T21:33:48;7.97;;;2.88;;
20084;SDS011;10202;48.474;9.138;2022-09-20T21:36:14;6.85;;;2.60;;
20084;SDS011;10202;48.474;9.138;2022-09-20T21:38:42;3.55;;;2.47;;
20084;SDS011;10202;48.474;9.138;2022-09-20T21:44:01;3.28;;;2.08;;
20084;SDS011;10202;48.474;9.138;2022-09-20T21:46:32;5.00;;;2.80;;
20084;SDS011;10202;48.474;9.138;2022-09-20T21:48:59;6.28;;;2.83;;
20084;SDS011;10202;48.474;9.138;2022-09-20T21:51:26;4.35;;;2.35;;
20084;SDS011;10202;48.474;9.138;2022-09-20T21:54:15;5.97;;;2.25;;
20084;SDS011;10202;48.474;9.138;2022-09-20T21:56:40;3.25;;;2.15;;
20084;SDS011;10202;48.474;9.138;2022-09-20T21:59:06;4.32;;;2.25;;
20084;SDS011;10202;48.474;9.138;2022-09-20T22:01:33;2.88;;;2.17;;
20084;SDS011;10202;48.474;9.138;2022-09-20T22:04:02;8.27;;;2.40;;
20084;SDS011;10202;48.474;9.138;2022-09-20T22:06:30;5.70;;;2.38;;
20084;SDS011;10202;48.474;9.138;2022-09-20T22:09:02;4.85;;;2.28;;
20084;SDS011;10202;48.474;9.138;2022-09-20T22:14:17;4.28;;;2.28;;
20084;SDS011;10202;48.474;9.138;2022-09-20T22:16:44;3.13;;;2.30;;
20084;SDS011;10202;48.474;9.138;2022-09-20T22:19:10;4.65;;;2.22;;
20084;SDS011;10202;48.474;9.138;2022-09-20T22:21:37;4.47;;;2.72;;
20084;SDS011;10202;48.474;9.138;2022-09-20T22:24:05;4.35;;;2.72;;
20084;SDS011;10202;48.474;9.138;2022-09-20T22:29:20;3.90;;;2.63;;
20084;SDS011;10202;48.474;9.138;2022-09-20T22:31:46;5.97;;;2.38;;
20084;SDS011;10202;48.474;9.138;2022-09-20T22:34:14;5.25;;;2.60;;
20084;SDS011;10202;48.474;9.138;2022-09-20T22:36:40;4.20;;;2.22;;
20084;SDS011;10202;48.474;9.138;2022-09-20T22:39:07;4.40;;;2.63;;
20084;SDS011;10202;48.474;9.138;2022-09-20T22:41:34;4.50;;;2.22;;
20084;SDS011;10202;48.474;9.138;2022-09-20T22:44:00;6.55;;;2.70;;
20084;SDS011;10202;48.474;9.138;2022-09-20T22:46:27;5.32;;;2.50;;
20084;SDS011;10202;48.474;9.138;2022-09-20T22:48:53;7.45;;;2.45;;
20084;SDS011;10202;48.474;9.138;2022-09-20T22:51:20;5.40;;;2.33;;
20084;SDS011;10202;48.474;9.138;2022-09-20T22:53:47;5.60;;;2.53;;
20084;SDS011;10202;48.474;9.138;2022-09-20T22:59:28;4.68;;;2.35;;
20084;SDS011;10202;48.474;9.138;2022-09-20T23:01:53;9.18;;;2.33;;
20084;SDS011;10202;48.474;9.138;2022-09-20T23:04:19;7.82;;;2.75;;
20084;SDS011;10202;48.474;9.138;2022-09-20T23:06:51;4.47;;;2.30;;
20084;SDS011;10202;48.474;9.138;2022-09-20T23:09:19;3.10;;;2.10;;
20084;SDS011;10202;48.474;9.138;2022-09-20T23:11:46;4.28;;;2.38;;
20084;SDS011;10202;48.474;9.138;2022-09-20T23:14:13;6.70;;;2.38;;
20084;SDS011;10202;48.474;9.138;2022-09-20T23:16:40;5.53;;;2.50;;
20084;SDS011;10202;48.474;9.138;2022-09-20T23:19:07;4.57;;;2.42;;
20084;SDS011;10202;48.474;9.138;2022-09-20T23:21:33;4.07;;;2.45;;
20084;SDS011;10202;48.474;9.138;2022-09-20T23:24:01;3.72;;;2.30;;
20084;SDS011;10202;48.474;9.138;2022-09-20T23:26:28;5.32;;;2.53;;
20084;SDS011;10202;48.474;9.138;2022-09-20T23:28:56;5.60;;;2.40;;
20084;SDS011;10202;48.474;9.138;2022-09-20T23:31:45;6.05;;;2.38;;
20084;SDS011;10202;48.474;9.138;2022-09-20T23:34:12;6.65;;;2.30;;
20084;SDS011;10202;48.474;9.138;2022-09-20T23:36:38;7.47;;;2.28;;
20084;SDS011;10202;48.474;9.138;2022-09-20T23:39:05;3.75;;;2.08;;
20084;SDS011;10202;48.474;9.138;2022-09-20T23:41:31;4.20;;;2.20;;
20084;SDS011;10202;48.474;9.138;2022-09-20T23:43:57;8.13;;;2.70;;
20084;SDS011;10202;48.474;9.138;2022-09-20T23:46:23;3.67;;;2.17;;
20084;SDS011;10202;48.474;9.138;2022-09-20T23:48:49;5.85;;;2.20;;
20084;SDS011;10202;48.474;9.138;2022-09-20T23:51:16;3.63;;;2.35;;
20084;SDS011;10202;48.474;9.138;2022-09-20T23:54:05;4.72;;;2.60;;
20084;SDS011;10202;48.474;9.138;2022-09-20T23:56:30;4.70;;;2.20;;
20084;SDS011;10202;48.474;9.138;2022-09-20T23:58:56;5.68;;;2.72;;
